sensor_id;sensor_type;location;lat;lon;timestamp;P1;durP1;ratioP1;P2;durP2;ratioP2
22388;SDS011;11362;48.102;11.620;2022-11-20T00:01:22;2.40;;;1.50;;
22388;SDS011;11362;48.102;11.620;2022-11-20T00:03:54;2.23;;;1.33;;
22388;SDS011;11362;48.102;11.620;2022-11-20T00:06:21;1.47;;;1.00;;
22388;SDS011;11362;48.102;11.620;2022-11-20T00:08:47;2.50;;;1.30;;
22388;SDS011;11362;48.102;11.620;2022-11-20T00:11:14;2.03;;;0.97;;
22388;SDS011;11362;48.102;11.620;2022-11-20T00:13:41;3.97;;;1.03;;
22388;SDS011;11362;48.102;11.620;2022-11-20T00:16:07;1.50;;;1.23;;
22388;SDS011;11362;48.102;11.620;2022-11-20T00:18:35;1.40;;;1.00;;
22388;SDS011;11362;48.102;11.620;2022-11-20T00:21:05;1.90;;;1.00;;
22388;SDS011;11362;48.102;11.620;2022-11-20T00:23:32;1.87;;;1.30;;
22388;SDS011;11362;48.102;11.620;2022-11-20T00:26:00;1.90;;;0.80;;
22388;SDS011;11362;48.102;11.620;2022-11-20T00:28:33;2.00;;;1.20;;
22388;SDS011;11362;48.102;11.620;2022-11-20T00:31:03;1.17;;;1.07;;
22388;SDS011;11362;48.102;11.620;2022-11-20T00:33:30;1.47;;;0.90;;
22388;SDS011;11362;48.102;11.620;2022-11-20T00:36:02;1.03;;;0.93;;
22388;SDS011;11362;48.102;11.620;2022-11-20T00:38:29;1.77;;;1.30;;
22388;SDS011;11362;48.102;11.620;2022-11-20T00:40:56;1.20;;;0.90;;
22388;SDS011;11362;48.102;11.620;2022-11-20T00:43:26;1.97;;;1.07;;
22388;SDS011;11362;48.102;11.620;2022-11-20T00:45:59;4.23;;;0.90;;
22388;SDS011;11362;48.102;11.620;2022-11-20T00:48:25;1.80;;;1.10;;
22388;SDS011;11362;48.102;11.620;2022-11-20T00:50:51;1.23;;;0.90;;
22388;SDS011;11362;48.102;11.620;2022-11-20T00:53:16;1.00;;;1.00;;
22388;SDS011;11362;48.102;11.620;2022-11-20T00:55:42;1.00;;;0.90;;
22388;SDS011;11362;48.102;11.620;2022-11-20T00:58:07;1.20;;;1.10;;
22388;SDS011;11362;48.102;11.620;2022-11-20T01:00:32;0.80;;;0.80;;
22388;SDS011;11362;48.102;11.620;2022-11-20T01:02:58;1.20;;;0.93;;
22388;SDS011;11362;48.102;11.620;2022-11-20T01:05:23;1.27;;;0.83;;
22388;SDS011;11362;48.102;11.620;2022-11-20T01:07:48;0.60;;;0.60;;
22388;SDS011;11362;48.102;11.620;2022-11-20T01:10:13;0.70;;;0.60;;
22388;SDS011;11362;48.102;11.620;2022-11-20T01:12:39;0.87;;;0.80;;
22388;SDS011;11362;48.102;11.620;2022-11-20T01:15:04;1.00;;;0.90;;
22388;SDS011;11362;48.102;11.620;2022-11-20T01:17:30;0.50;;;0.50;;
22388;SDS011;11362;48.102;11.620;2022-11-20T01:19:56;1.13;;;1.03;;
22388;SDS011;11362;48.102;11.620;2022-11-20T01:22:22;1.27;;;0.83;;
22388;SDS011;11362;48.102;11.620;2022-11-20T01:24:47;1.33;;;1.07;;
22388;SDS011;11362;48.102;11.620;2022-11-20T01:27:13;0.97;;;0.80;;
22388;SDS011;11362;48.102;11.620;2022-11-20T01:29:38;0.80;;;0.80;;
22388;SDS011;11362;48.102;11.620;2022-11-20T01:32:03;0.90;;;0.90;;
22388;SDS011;11362;48.102;11.620;2022-11-20T01:34:29;0.80;;;0.80;;
22388;SDS011;11362;48.102;11.620;2022-11-20T01:36:54;0.87;;;0.77;;
22388;SDS011;11362;48.102;11.620;2022-11-20T01:39:21;0.70;;;0.70;;
22388;SDS011;11362;48.102;11.620;2022-11-20T01:41:48;0.53;;;0.53;;
22388;SDS011;11362;48.102;11.620;2022-11-20T01:44:16;0.70;;;0.70;;
22388;SDS011;11362;48.102;11.620;2022-11-20T01:46:59;1.13;;;0.60;;
22388;SDS011;11362;48.102;11.620;2022-11-20T01:49:31;0.80;;;0.80;;
22388;SDS011;11362;48.102;11.620;2022-11-20T01:54:43;0.60;;;0.60;;
22388;SDS011;11362;48.102;11.620;2022-11-20T01:57:13;0.63;;;0.63;;
22388;SDS011;11362;48.102;11.620;2022-11-20T01:59:43;1.10;;;0.70;;
22388;SDS011;11362;48.102;11.620;2022-11-20T02:02:13;3.30;;;0.70;;
22388;SDS011;11362;48.102;11.620;2022-11-20T02:04:39;0.70;;;0.70;;
22388;SDS011;11362;48.102;11.620;2022-11-20T02:07:05;0.90;;;0.60;;
22388;SDS011;11362;48.102;11.620;2022-11-20T02:09:30;0.70;;;0.70;;
22388;SDS011;11362;48.102;11.620;2022-11-20T02:11:56;0.60;;;0.60;;
22388;SDS011;11362;48.102;11.620;2022-11-20T02:14:23;0.93;;;0.60;;
22388;SDS011;11362;48.102;11.620;2022-11-20T02:16:50;0.70;;;0.70;;
22388;SDS011;11362;48.102;11.620;2022-11-20T02:19:37;0.70;;;0.70;;
22388;SDS011;11362;48.102;11.620;2022-11-20T02:22:05;0.70;;;0.70;;
22388;SDS011;11362;48.102;11.620;2022-11-20T02:24:39;0.40;;;0.40;;
22388;SDS011;11362;48.102;11.620;2022-11-20T02:27:10;0.50;;;0.50;;
22388;SDS011;11362;48.102;11.620;2022-11-20T02:29:39;0.53;;;0.40;;
22388;SDS011;11362;48.102;11.620;2022-11-20T02:32:22;0.60;;;0.60;;
22388;SDS011;11362;48.102;11.620;2022-11-20T02:34:50;0.53;;;0.53;;
22388;SDS011;11362;48.102;11.620;2022-11-20T02:37:15;0.57;;;0.57;;
22388;SDS011;11362;48.102;11.620;2022-11-20T02:39:41;1.00;;;0.57;;
22388;SDS011;11362;48.102;11.620;2022-11-20T02:42:09;0.60;;;0.60;;
22388;SDS011;11362;48.102;11.620;2022-11-20T02:44:34;0.50;;;0.50;;
22388;SDS011;11362;48.102;11.620;2022-11-20T02:47:00;0.50;;;0.50;;
22388;SDS011;11362;48.102;11.620;2022-11-20T02:49:25;0.50;;;0.50;;
22388;SDS011;11362;48.102;11.620;2022-11-20T02:51:51;1.00;;;0.50;;
22388;SDS011;11362;48.102;11.620;2022-11-20T02:54:16;1.60;;;0.50;;
22388;SDS011;11362;48.102;11.620;2022-11-20T02:56:42;0.67;;;0.53;;
22388;SDS011;11362;48.102;11.620;2022-11-20T02:59:07;0.60;;;0.60;;
22388;SDS011;11362;48.102;11.620;2022-11-20T03:01:33;0.30;;;0.30;;
22388;SDS011;11362;48.102;11.620;2022-11-20T03:03:58;0.70;;;0.70;;
22388;SDS011;11362;48.102;11.620;2022-11-20T03:06:23;0.50;;;0.40;;
22388;SDS011;11362;48.102;11.620;2022-11-20T03:08:48;0.40;;;0.40;;
22388;SDS011;11362;48.102;11.620;2022-11-20T03:11:14;0.50;;;0.50;;
22388;SDS011;11362;48.102;11.620;2022-11-20T03:13:39;0.50;;;0.50;;
22388;SDS011;11362;48.102;11.620;2022-11-20T03:16:12;0.40;;;0.40;;
22388;SDS011;11362;48.102;11.620;2022-11-20T03:18:42;0.40;;;0.40;;
22388;SDS011;11362;48.102;11.620;2022-11-20T03:21:08;0.40;;;0.40;;
22388;SDS011;11362;48.102;11.620;2022-11-20T03:23:35;0.30;;;0.30;;
22388;SDS011;11362;48.102;11.620;2022-11-20T03:26:07;0.70;;;0.70;;
22388;SDS011;11362;48.102;11.620;2022-11-20T03:28:33;0.50;;;0.50;;
22388;SDS011;11362;48.102;11.620;2022-11-20T03:30:58;0.97;;;0.60;;
22388;SDS011;11362;48.102;11.620;2022-11-20T03:33:29;0.63;;;0.60;;
22388;SDS011;11362;48.102;11.620;2022-11-20T03:35:54;0.40;;;0.40;;
22388;SDS011;11362;48.102;11.620;2022-11-20T03:38:19;0.30;;;0.30;;
22388;SDS011;11362;48.102;11.620;2022-11-20T03:40:45;0.60;;;0.40;;
22388;SDS011;11362;48.102;11.620;2022-11-20T03:43:10;0.50;;;0.50;;
22388;SDS011;11362;48.102;11.620;2022-11-20T03:45:35;1.20;;;0.37;;
22388;SDS011;11362;48.102;11.620;2022-11-20T03:48:00;0.40;;;0.40;;
22388;SDS011;11362;48.102;11.620;2022-11-20T03:50:26;0.43;;;0.40;;
22388;SDS011;11362;48.102;11.620;2022-11-20T03:52:51;0.60;;;0.50;;
22388;SDS011;11362;48.102;11.620;2022-11-20T03:55:16;0.77;;;0.40;;
22388;SDS011;11362;48.102;11.620;2022-11-20T03:57:42;0.50;;;0.50;;
22388;SDS011;11362;48.102;11.620;2022-11-20T04:00:07;0.50;;;0.50;;
22388;SDS011;11362;48.102;11.620;2022-11-20T04:02:33;0.50;;;0.50;;
22388;SDS011;11362;48.102;11.620;2022-11-20T04:04:58;0.47;;;0.47;;
22388;SDS011;11362;48.102;11.620;2022-11-20T04:07:23;0.37;;;0.37;;
22388;SDS011;11362;48.102;11.620;2022-11-20T04:09:49;0.40;;;0.40;;
22388;SDS011;11362;48.102;11.620;2022-11-20T04:12:14;0.40;;;0.40;;
22388;SDS011;11362;48.102;11.620;2022-11-20T04:14:39;0.50;;;0.50;;
22388;SDS011;11362;48.102;11.620;2022-11-20T04:17:04;0.40;;;0.40;;
22388;SDS011;11362;48.102;11.620;2022-11-20T04:19:30;0.30;;;0.30;;
22388;SDS011;11362;48.102;11.620;2022-11-20T04:21:55;0.20;;;0.20;;
22388;SDS011;11362;48.102;11.620;2022-11-20T04:24:20;0.50;;;0.50;;
22388;SDS011;11362;48.102;11.620;2022-11-20T04:26:46;0.40;;;0.40;;
22388;SDS011;11362;48.102;11.620;2022-11-20T04:29:11;0.40;;;0.40;;
22388;SDS011;11362;48.102;11.620;2022-11-20T04:31:36;0.50;;;0.50;;
22388;SDS011;11362;48.102;11.620;2022-11-20T04:34:02;0.40;;;0.40;;
22388;SDS011;11362;48.102;11.620;2022-11-20T04:36:29;0.63;;;0.33;;
22388;SDS011;11362;48.102;11.620;2022-11-20T04:38:56;0.30;;;0.30;;
22388;SDS011;11362;48.102;11.620;2022-11-20T04:41:27;0.30;;;0.30;;
22388;SDS011;11362;48.102;11.620;2022-11-20T04:43:56;0.33;;;0.33;;
22388;SDS011;11362;48.102;11.620;2022-11-20T04:46:23;0.40;;;0.40;;
22388;SDS011;11362;48.102;11.620;2022-11-20T04:48:48;0.57;;;0.57;;
22388;SDS011;11362;48.102;11.620;2022-11-20T04:51:13;0.40;;;0.40;;
22388;SDS011;11362;48.102;11.620;2022-11-20T04:53:39;0.47;;;0.43;;
22388;SDS011;11362;48.102;11.620;2022-11-20T04:56:05;0.50;;;0.50;;
22388;SDS011;11362;48.102;11.620;2022-11-20T04:58:33;1.07;;;0.57;;
22388;SDS011;11362;48.102;11.620;2022-11-20T05:01:02;0.40;;;0.40;;
22388;SDS011;11362;48.102;11.620;2022-11-20T05:03:28;0.30;;;0.30;;
22388;SDS011;11362;48.102;11.620;2022-11-20T05:05:54;0.40;;;0.40;;
22388;SDS011;11362;48.102;11.620;2022-11-20T05:08:19;0.67;;;0.40;;
22388;SDS011;11362;48.102;11.620;2022-11-20T05:10:44;0.50;;;0.40;;
22388;SDS011;11362;48.102;11.620;2022-11-20T05:13:10;0.40;;;0.40;;
22388;SDS011;11362;48.102;11.620;2022-11-20T05:15:35;0.40;;;0.40;;
22388;SDS011;11362;48.102;11.620;2022-11-20T05:18:00;0.40;;;0.40;;
22388;SDS011;11362;48.102;11.620;2022-11-20T05:20:26;0.30;;;0.30;;
22388;SDS011;11362;48.102;11.620;2022-11-20T05:22:51;0.87;;;0.40;;
22388;SDS011;11362;48.102;11.620;2022-11-20T05:25:16;0.30;;;0.30;;
22388;SDS011;11362;48.102;11.620;2022-11-20T05:27:41;0.33;;;0.33;;
22388;SDS011;11362;48.102;11.620;2022-11-20T05:30:07;0.30;;;0.30;;
22388;SDS011;11362;48.102;11.620;2022-11-20T05:32:33;0.30;;;0.30;;
22388;SDS011;11362;48.102;11.620;2022-11-20T05:34:58;0.37;;;0.37;;
22388;SDS011;11362;48.102;11.620;2022-11-20T05:37:23;0.50;;;0.50;;
22388;SDS011;11362;48.102;11.620;2022-11-20T05:39:49;0.30;;;0.30;;
22388;SDS011;11362;48.102;11.620;2022-11-20T05:42:14;1.03;;;0.57;;
22388;SDS011;11362;48.102;11.620;2022-11-20T05:44:39;0.50;;;0.50;;
22388;SDS011;11362;48.102;11.620;2022-11-20T05:47:05;0.30;;;0.30;;
22388;SDS011;11362;48.102;11.620;2022-11-20T05:49:31;0.37;;;0.37;;
22388;SDS011;11362;48.102;11.620;2022-11-20T05:51:57;0.50;;;0.50;;
22388;SDS011;11362;48.102;11.620;2022-11-20T05:54:22;0.93;;;0.40;;
22388;SDS011;11362;48.102;11.620;2022-11-20T05:56:47;0.50;;;0.50;;
22388;SDS011;11362;48.102;11.620;2022-11-20T05:59:13;0.30;;;0.30;;
22388;SDS011;11362;48.102;11.620;2022-11-20T06:01:38;0.30;;;0.30;;
22388;SDS011;11362;48.102;11.620;2022-11-20T06:04:03;0.30;;;0.30;;
22388;SDS011;11362;48.102;11.620;2022-11-20T06:06:28;0.53;;;0.53;;
22388;SDS011;11362;48.102;11.620;2022-11-20T06:08:54;0.40;;;0.40;;
22388;SDS011;11362;48.102;11.620;2022-11-20T06:11:20;0.30;;;0.30;;
22388;SDS011;11362;48.102;11.620;2022-11-20T06:13:45;0.47;;;0.47;;
22388;SDS011;11362;48.102;11.620;2022-11-20T06:16:11;0.43;;;0.43;;
22388;SDS011;11362;48.102;11.620;2022-11-20T06:18:38;0.30;;;0.30;;
22388;SDS011;11362;48.102;11.620;2022-11-20T06:21:11;0.30;;;0.30;;
22388;SDS011;11362;48.102;11.620;2022-11-20T06:23:41;0.50;;;0.50;;
22388;SDS011;11362;48.102;11.620;2022-11-20T06:26:07;0.40;;;0.40;;
22388;SDS011;11362;48.102;11.620;2022-11-20T06:28:34;0.30;;;0.30;;
22388;SDS011;11362;48.102;11.620;2022-11-20T06:30:59;0.30;;;0.30;;
22388;SDS011;11362;48.102;11.620;2022-11-20T06:33:25;0.20;;;0.20;;
22388;SDS011;11362;48.102;11.620;2022-11-20T06:35:50;0.40;;;0.40;;
22388;SDS011;11362;48.102;11.620;2022-11-20T06:38:16;0.80;;;0.30;;
22388;SDS011;11362;48.102;11.620;2022-11-20T06:40:42;0.40;;;0.40;;
22388;SDS011;11362;48.102;11.620;2022-11-20T06:43:08;0.30;;;0.30;;
22388;SDS011;11362;48.102;11.620;2022-11-20T06:45:34;0.30;;;0.30;;
22388;SDS011;11362;48.102;11.620;2022-11-20T06:48:00;1.20;;;0.43;;
22388;SDS011;11362;48.102;11.620;2022-11-20T06:50:25;1.10;;;0.60;;
22388;SDS011;11362;48.102;11.620;2022-11-20T06:52:50;14.77;;;1.10;;
22388;SDS011;11362;48.102;11.620;2022-11-20T06:55:15;7.93;;;1.53;;
22388;SDS011;11362;48.102;11.620;2022-11-20T06:57:41;4.57;;;1.33;;
22388;SDS011;11362;48.102;11.620;2022-11-20T07:00:06;10.20;;;1.57;;
22388;SDS011;11362;48.102;11.620;2022-11-20T07:02:32;7.37;;;1.43;;
22388;SDS011;11362;48.102;11.620;2022-11-20T07:04:57;7.70;;;1.30;;
22388;SDS011;11362;48.102;11.620;2022-11-20T07:07:23;25.73;;;12.23;;
22388;SDS011;11362;48.102;11.620;2022-11-20T07:09:48;24.07;;;8.97;;
22388;SDS011;11362;48.102;11.620;2022-11-20T07:12:13;33.53;;;11.97;;
22388;SDS011;11362;48.102;11.620;2022-11-20T07:14:38;30.77;;;10.10;;
22388;SDS011;11362;48.102;11.620;2022-11-20T07:17:04;23.50;;;9.87;;
22388;SDS011;11362;48.102;11.620;2022-11-20T07:19:29;25.00;;;9.07;;
22388;SDS011;11362;48.102;11.620;2022-11-20T07:21:54;28.60;;;10.23;;
22388;SDS011;11362;48.102;11.620;2022-11-20T07:24:20;29.33;;;9.93;;
22388;SDS011;11362;48.102;11.620;2022-11-20T07:26:48;29.80;;;9.47;;
22388;SDS011;11362;48.102;11.620;2022-11-20T07:29:13;25.70;;;8.33;;
22388;SDS011;11362;48.102;11.620;2022-11-20T07:31:38;36.00;;;7.83;;
22388;SDS011;11362;48.102;11.620;2022-11-20T07:34:04;27.03;;;8.10;;
22388;SDS011;11362;48.102;11.620;2022-11-20T07:36:29;36.03;;;9.63;;
22388;SDS011;11362;48.102;11.620;2022-11-20T07:38:54;44.60;;;9.40;;
22388;SDS011;11362;48.102;11.620;2022-11-20T07:41:19;43.00;;;10.50;;
22388;SDS011;11362;48.102;11.620;2022-11-20T07:43:45;39.87;;;10.33;;
22388;SDS011;11362;48.102;11.620;2022-11-20T07:46:10;34.23;;;9.07;;
22388;SDS011;11362;48.102;11.620;2022-11-20T07:48:35;43.67;;;9.67;;
22388;SDS011;11362;48.102;11.620;2022-11-20T07:51:00;33.80;;;9.23;;
22388;SDS011;11362;48.102;11.620;2022-11-20T07:53:26;23.27;;;7.53;;
22388;SDS011;11362;48.102;11.620;2022-11-20T07:55:51;27.73;;;7.57;;
22388;SDS011;11362;48.102;11.620;2022-11-20T07:58:16;26.43;;;8.50;;
22388;SDS011;11362;48.102;11.620;2022-11-20T08:00:42;29.97;;;7.33;;
22388;SDS011;11362;48.102;11.620;2022-11-20T08:03:07;16.63;;;6.17;;
22388;SDS011;11362;48.102;11.620;2022-11-20T08:05:32;29.60;;;6.97;;
22388;SDS011;11362;48.102;11.620;2022-11-20T08:07:58;20.00;;;6.93;;
22388;SDS011;11362;48.102;11.620;2022-11-20T08:10:24;24.17;;;6.60;;
22388;SDS011;11362;48.102;11.620;2022-11-20T08:12:51;27.20;;;7.00;;
22388;SDS011;11362;48.102;11.620;2022-11-20T08:15:17;27.53;;;7.30;;
22388;SDS011;11362;48.102;11.620;2022-11-20T08:17:43;32.93;;;8.97;;
22388;SDS011;11362;48.102;11.620;2022-11-20T08:20:08;21.97;;;6.30;;
22388;SDS011;11362;48.102;11.620;2022-11-20T08:22:34;22.50;;;6.63;;
22388;SDS011;11362;48.102;11.620;2022-11-20T08:24:59;27.40;;;6.13;;
22388;SDS011;11362;48.102;11.620;2022-11-20T08:27:25;38.30;;;7.43;;
22388;SDS011;11362;48.102;11.620;2022-11-20T08:29:50;25.93;;;7.00;;
22388;SDS011;11362;48.102;11.620;2022-11-20T08:32:15;31.83;;;7.50;;
22388;SDS011;11362;48.102;11.620;2022-11-20T08:34:41;26.13;;;6.33;;
22388;SDS011;11362;48.102;11.620;2022-11-20T08:37:06;22.70;;;6.43;;
22388;SDS011;11362;48.102;11.620;2022-11-20T08:39:31;25.63;;;6.37;;
22388;SDS011;11362;48.102;11.620;2022-11-20T08:41:56;24.57;;;7.03;;
22388;SDS011;11362;48.102;11.620;2022-11-20T08:44:22;32.67;;;6.60;;
22388;SDS011;11362;48.102;11.620;2022-11-20T08:46:47;21.67;;;6.13;;
22388;SDS011;11362;48.102;11.620;2022-11-20T08:49:13;27.23;;;5.93;;
22388;SDS011;11362;48.102;11.620;2022-11-20T08:51:39;23.00;;;5.57;;
22388;SDS011;11362;48.102;11.620;2022-11-20T08:54:04;38.30;;;7.03;;
22388;SDS011;11362;48.102;11.620;2022-11-20T08:56:30;31.43;;;6.37;;
22388;SDS011;11362;48.102;11.620;2022-11-20T08:58:56;40.20;;;9.10;;
22388;SDS011;11362;48.102;11.620;2022-11-20T09:01:22;31.40;;;6.10;;
22388;SDS011;11362;48.102;11.620;2022-11-20T09:03:48;40.40;;;7.60;;
22388;SDS011;11362;48.102;11.620;2022-11-20T09:06:14;28.63;;;5.93;;
22388;SDS011;11362;48.102;11.620;2022-11-20T09:08:39;24.30;;;5.43;;
22388;SDS011;11362;48.102;11.620;2022-11-20T09:11:06;30.10;;;6.50;;
22388;SDS011;11362;48.102;11.620;2022-11-20T09:13:32;27.93;;;6.83;;
22388;SDS011;11362;48.102;11.620;2022-11-20T09:15:59;29.37;;;6.10;;
22388;SDS011;11362;48.102;11.620;2022-11-20T09:18:26;32.07;;;6.57;;
22388;SDS011;11362;48.102;11.620;2022-11-20T09:20:56;26.63;;;6.23;;
22388;SDS011;11362;48.102;11.620;2022-11-20T09:23:22;28.37;;;6.37;;
22388;SDS011;11362;48.102;11.620;2022-11-20T09:25:47;34.17;;;7.03;;
22388;SDS011;11362;48.102;11.620;2022-11-20T09:28:12;39.37;;;7.40;;
22388;SDS011;11362;48.102;11.620;2022-11-20T09:30:38;36.20;;;6.47;;
22388;SDS011;11362;48.102;11.620;2022-11-20T09:33:04;28.00;;;6.27;;
22388;SDS011;11362;48.102;11.620;2022-11-20T09:35:30;24.70;;;6.57;;
22388;SDS011;11362;48.102;11.620;2022-11-20T09:37:55;36.37;;;7.03;;
22388;SDS011;11362;48.102;11.620;2022-11-20T09:40:26;30.30;;;6.80;;
22388;SDS011;11362;48.102;11.620;2022-11-20T09:43:06;41.17;;;7.37;;
22388;SDS011;11362;48.102;11.620;2022-11-20T09:54:18;43.60;;;7.93;;
22388;SDS011;11362;48.102;11.620;2022-11-20T09:56:56;33.33;;;6.93;;
22388;SDS011;11362;48.102;11.620;2022-11-20T10:01:59;38.13;;;6.60;;
22388;SDS011;11362;48.102;11.620;2022-11-20T10:04:25;41.00;;;7.60;;
22388;SDS011;11362;48.102;11.620;2022-11-20T10:09:34;32.73;;;6.60;;
22388;SDS011;11362;48.102;11.620;2022-11-20T10:12:17;39.87;;;6.87;;
22388;SDS011;11362;48.102;11.620;2022-11-20T10:15:10;34.70;;;6.60;;
22388;SDS011;11362;48.102;11.620;2022-11-20T10:17:59;28.70;;;6.63;;
22388;SDS011;11362;48.102;11.620;2022-11-20T10:20:40;32.57;;;6.30;;
22388;SDS011;11362;48.102;11.620;2022-11-20T10:23:17;27.57;;;6.50;;
22388;SDS011;11362;48.102;11.620;2022-11-20T10:28:50;29.63;;;6.80;;
22388;SDS011;11362;48.102;11.620;2022-11-20T10:31:25;98.27;;;31.93;;
22388;SDS011;11362;48.102;11.620;2022-11-20T10:33:56;49.33;;;12.70;;
22388;SDS011;11362;48.102;11.620;2022-11-20T10:36:26;37.33;;;11.10;;
22388;SDS011;11362;48.102;11.620;2022-11-20T10:38:59;36.60;;;11.20;;
22388;SDS011;11362;48.102;11.620;2022-11-20T10:41:32;45.57;;;12.10;;
22388;SDS011;11362;48.102;11.620;2022-11-20T10:44:12;34.93;;;11.90;;
22388;SDS011;11362;48.102;11.620;2022-11-20T10:46:41;51.60;;;12.37;;
22388;SDS011;11362;48.102;11.620;2022-11-20T10:49:16;38.37;;;11.10;;
22388;SDS011;11362;48.102;11.620;2022-11-20T10:54:40;25.10;;;6.17;;
22388;SDS011;11362;48.102;11.620;2022-11-20T11:00:00;18.67;;;5.43;;
22388;SDS011;11362;48.102;11.620;2022-11-20T11:02:47;29.40;;;6.50;;
22388;SDS011;11362;48.102;11.620;2022-11-20T11:05:27;27.20;;;6.30;;
22388;SDS011;11362;48.102;11.620;2022-11-20T11:08:00;25.17;;;6.47;;
22388;SDS011;11362;48.102;11.620;2022-11-20T11:10:36;27.27;;;6.50;;
22388;SDS011;11362;48.102;11.620;2022-11-20T11:13:19;29.37;;;5.87;;
22388;SDS011;11362;48.102;11.620;2022-11-20T11:15:46;25.63;;;6.47;;
22388;SDS011;11362;48.102;11.620;2022-11-20T11:18:11;19.93;;;5.93;;
22388;SDS011;11362;48.102;11.620;2022-11-20T11:20:58;23.43;;;6.20;;
22388;SDS011;11362;48.102;11.620;2022-11-20T11:26:05;23.13;;;5.97;;
22388;SDS011;11362;48.102;11.620;2022-11-20T11:28:32;21.47;;;6.47;;
22388;SDS011;11362;48.102;11.620;2022-11-20T11:30:58;22.47;;;5.73;;
22388;SDS011;11362;48.102;11.620;2022-11-20T11:33:27;22.97;;;6.63;;
22388;SDS011;11362;48.102;11.620;2022-11-20T11:35:55;30.73;;;7.57;;
22388;SDS011;11362;48.102;11.620;2022-11-20T11:38:35;21.83;;;5.80;;
22388;SDS011;11362;48.102;11.620;2022-11-20T11:41:03;19.10;;;4.80;;
22388;SDS011;11362;48.102;11.620;2022-11-20T11:43:33;27.53;;;6.47;;
22388;SDS011;11362;48.102;11.620;2022-11-20T11:46:00;23.03;;;5.40;;
22388;SDS011;11362;48.102;11.620;2022-11-20T11:48:26;26.17;;;7.07;;
22388;SDS011;11362;48.102;11.620;2022-11-20T11:50:51;19.93;;;6.17;;
22388;SDS011;11362;48.102;11.620;2022-11-20T11:53:20;25.70;;;5.37;;
22388;SDS011;11362;48.102;11.620;2022-11-20T12:04:16;26.73;;;5.53;;
22388;SDS011;11362;48.102;11.620;2022-11-20T12:06:50;27.67;;;5.17;;
22388;SDS011;11362;48.102;11.620;2022-11-20T12:09:21;24.60;;;5.23;;
22388;SDS011;11362;48.102;11.620;2022-11-20T12:11:58;28.07;;;5.43;;
22388;SDS011;11362;48.102;11.620;2022-11-20T12:14:40;30.80;;;5.60;;
22388;SDS011;11362;48.102;11.620;2022-11-20T12:17:10;21.27;;;4.70;;
22388;SDS011;11362;48.102;11.620;2022-11-20T12:19:38;29.20;;;6.17;;
22388;SDS011;11362;48.102;11.620;2022-11-20T12:30:18;26.93;;;6.37;;
22388;SDS011;11362;48.102;11.620;2022-11-20T12:35:32;23.53;;;4.77;;
22388;SDS011;11362;48.102;11.620;2022-11-20T12:44:04;31.60;;;6.40;;
22388;SDS011;11362;48.102;11.620;2022-11-20T12:49:51;24.57;;;5.23;;
22388;SDS011;11362;48.102;11.620;2022-11-20T12:52:36;21.47;;;5.13;;
22388;SDS011;11362;48.102;11.620;2022-11-20T12:55:20;26.57;;;4.67;;
22388;SDS011;11362;48.102;11.620;2022-11-20T12:57:55;21.73;;;4.47;;
22388;SDS011;11362;48.102;11.620;2022-11-20T13:00:22;26.73;;;4.70;;
22388;SDS011;11362;48.102;11.620;2022-11-20T13:03:00;14.90;;;4.17;;
22388;SDS011;11362;48.102;11.620;2022-11-20T13:05:46;16.90;;;4.47;;
22388;SDS011;11362;48.102;11.620;2022-11-20T13:08:24;31.90;;;4.97;;
22388;SDS011;11362;48.102;11.620;2022-11-20T13:10:56;29.90;;;5.23;;
22388;SDS011;11362;48.102;11.620;2022-11-20T13:13:35;36.17;;;5.53;;
22388;SDS011;11362;48.102;11.620;2022-11-20T13:18:54;22.83;;;4.13;;
22388;SDS011;11362;48.102;11.620;2022-11-20T13:21:34;29.87;;;4.43;;
22388;SDS011;11362;48.102;11.620;2022-11-20T13:24:05;29.77;;;4.73;;
22388;SDS011;11362;48.102;11.620;2022-11-20T13:26:46;33.37;;;4.63;;
22388;SDS011;11362;48.102;11.620;2022-11-20T13:29:16;21.40;;;4.30;;
22388;SDS011;11362;48.102;11.620;2022-11-20T13:31:43;23.87;;;4.63;;
22388;SDS011;11362;48.102;11.620;2022-11-20T13:34:11;37.60;;;5.23;;
22388;SDS011;11362;48.102;11.620;2022-11-20T13:36:51;21.50;;;4.13;;
22388;SDS011;11362;48.102;11.620;2022-11-20T13:39:27;27.53;;;4.67;;
22388;SDS011;11362;48.102;11.620;2022-11-20T13:41:57;30.40;;;5.40;;
22388;SDS011;11362;48.102;11.620;2022-11-20T13:44:39;26.97;;;5.10;;
22388;SDS011;11362;48.102;11.620;2022-11-20T13:47:19;15.23;;;3.70;;
22388;SDS011;11362;48.102;11.620;2022-11-20T13:49:46;25.13;;;4.53;;
22388;SDS011;11362;48.102;11.620;2022-11-20T14:00:25;46.33;;;5.33;;
22388;SDS011;11362;48.102;11.620;2022-11-20T14:02:59;23.27;;;3.33;;
22388;SDS011;11362;48.102;11.620;2022-11-20T14:05:37;22.30;;;4.00;;
22388;SDS011;11362;48.102;11.620;2022-11-20T14:08:06;27.40;;;4.57;;
22388;SDS011;11362;48.102;11.620;2022-11-20T14:10:38;24.57;;;5.90;;
22388;SDS011;11362;48.102;11.620;2022-11-20T14:13:18;22.13;;;4.57;;
22388;SDS011;11362;48.102;11.620;2022-11-20T14:15:45;25.73;;;4.93;;
22388;SDS011;11362;48.102;11.620;2022-11-20T14:18:11;41.83;;;5.80;;
22388;SDS011;11362;48.102;11.620;2022-11-20T14:20:44;28.27;;;6.27;;
22388;SDS011;11362;48.102;11.620;2022-11-20T14:23:10;30.63;;;5.60;;
22388;SDS011;11362;48.102;11.620;2022-11-20T14:25:35;28.47;;;5.17;;
22388;SDS011;11362;48.102;11.620;2022-11-20T14:28:02;40.43;;;5.63;;
22388;SDS011;11362;48.102;11.620;2022-11-20T14:30:42;31.97;;;5.27;;
22388;SDS011;11362;48.102;11.620;2022-11-20T14:33:10;28.63;;;5.43;;
22388;SDS011;11362;48.102;11.620;2022-11-20T14:35:37;13.23;;;3.27;;
22388;SDS011;11362;48.102;11.620;2022-11-20T14:38:10;24.60;;;4.30;;
22388;SDS011;11362;48.102;11.620;2022-11-20T14:40:39;19.80;;;4.10;;
22388;SDS011;11362;48.102;11.620;2022-11-20T14:43:18;21.53;;;3.93;;
22388;SDS011;11362;48.102;11.620;2022-11-20T14:46:01;19.50;;;4.10;;
22388;SDS011;11362;48.102;11.620;2022-11-20T14:48:31;14.17;;;3.60;;
22388;SDS011;11362;48.102;11.620;2022-11-20T14:51:11;19.70;;;4.20;;
22388;SDS011;11362;48.102;11.620;2022-11-20T14:53:48;13.10;;;2.23;;
22388;SDS011;11362;48.102;11.620;2022-11-20T14:56:13;6.07;;;2.37;;
22388;SDS011;11362;48.102;11.620;2022-11-20T14:58:54;10.67;;;2.27;;
22388;SDS011;11362;48.102;11.620;2022-11-20T15:01:25;13.30;;;2.70;;
22388;SDS011;11362;48.102;11.620;2022-11-20T15:06:29;12.10;;;3.10;;
22388;SDS011;11362;48.102;11.620;2022-11-20T15:08:55;25.20;;;3.10;;
22388;SDS011;11362;48.102;11.620;2022-11-20T15:11:22;27.10;;;3.07;;
22388;SDS011;11362;48.102;11.620;2022-11-20T15:13:53;20.47;;;3.57;;
22388;SDS011;11362;48.102;11.620;2022-11-20T15:16:19;18.13;;;3.40;;
22388;SDS011;11362;48.102;11.620;2022-11-20T15:18:45;26.13;;;4.37;;
22388;SDS011;11362;48.102;11.620;2022-11-20T15:21:13;24.70;;;3.00;;
22388;SDS011;11362;48.102;11.620;2022-11-20T15:23:39;23.37;;;4.13;;
22388;SDS011;11362;48.102;11.620;2022-11-20T15:26:05;26.47;;;4.03;;
22388;SDS011;11362;48.102;11.620;2022-11-20T15:28:33;33.47;;;4.47;;
22388;SDS011;11362;48.102;11.620;2022-11-20T15:31:00;42.97;;;5.00;;
22388;SDS011;11362;48.102;11.620;2022-11-20T15:33:26;41.23;;;5.63;;
22388;SDS011;11362;48.102;11.620;2022-11-20T15:35:52;62.33;;;16.57;;
22388;SDS011;11362;48.102;11.620;2022-11-20T15:38:17;54.50;;;13.73;;
22388;SDS011;11362;48.102;11.620;2022-11-20T15:40:42;58.20;;;14.27;;
22388;SDS011;11362;48.102;11.620;2022-11-20T15:43:08;51.10;;;12.43;;